Wetterdaten: Woche 23.06.14 - 29.06.14 (KW26)
Datum Zeit Temp. Aussen +5cm Feuchte Auss Luftdruck Regen Sonnenschein Regendauer UV Solar Windben
23.06.2014 00:00 12,5 C 10,5 C 85 % 1022,8 hPa 0,0 l/m 0,00 h 0,00 h 0,0 UV-I 0 W/m 0,0 km/h (0 Bft)
23.06.2014 01:00 11,3 C 9,5 C 89 % 1022,9 hPa 0,0 l/m 0,00 h 0,00 h 0,0 UV-I 0 W/m 0,0 km/h (0 Bft)
23.06.2014 02:00 10,4 C 8,7 C 92 % 1022,8 hPa 0,0 l/m 0,00 h 0,00 h 0,0 UV-I 0 W/m 0,0 km/h (0 Bft)
23.06.2014 03:00 9,8 C 8,2 C 94 % 1022,7 hPa 0,0 l/m 0,00 h 0,00 h 0,0 UV-I 0 W/m 0,0 km/h (0 Bft)
23.06.2014 04:00 9,1 C 7,7 C 95 % 1022,6 hPa 0,0 l/m 0,00 h 0,00 h 0,0 UV-I 0 W/m 0,0 km/h (0 Bft)
23.06.2014 05:00 8,7 C 7,3 C 96 % 1022,7 hPa 0,0 l/m 0,43 h 0,00 h 0,0 UV-I 28 W/m 0,0 km/h (0 Bft)
23.06.2014 06:00 9,3 C 8,0 C 96 % 1022,6 hPa 0,0 l/m 0,97 h 0,00 h 0,0 UV-I 151 W/m 0,0 km/h (0 Bft)
23.06.2014 07:00 11,2 C 9,7 C 93 % 1023,0 hPa 0,0 l/m 1,00 h 0,00 h 0,0 UV-I 278 W/m 5,0 km/h (1 Bft)
23.06.2014 08:00 13,6 C 12,1 C 83 % 1023,5 hPa 0,0 l/m 1,00 h 0,00 h 0,6 UV-I 397 W/m 2,2 km/h (1 Bft)
23.06.2014 09:00 15,5 C 14,5 C 73 % 1023,4 hPa 0,0 l/m 0,97 h 0,00 h 1,3 UV-I 574 W/m 5,5 km/h (1 Bft)
23.06.2014 10:00 17,1 C 18,1 C 65 % 1023,0 hPa 0,0 l/m 0,93 h 0,00 h 2,1 UV-I 601 W/m 9,8 km/h (2 Bft)
23.06.2014 11:00 18,1 C 20,9 C 65 % 1022,6 hPa 0,0 l/m 0,80 h 0,00 h 3,0 UV-I 741 W/m 12,7 km/h (3 Bft)
23.06.2014 12:00 18,2 C 20,0 C 65 % 1022,2 hPa 0,0 l/m 0,77 h 0,00 h 2,7 UV-I 557 W/m 10,8 km/h (2 Bft)
23.06.2014 13:00 19,3 C 20,5 C 62 % 1021,9 hPa 0,0 l/m 1,00 h 0,00 h 4,0 UV-I 757 W/m 15,1 km/h (3 Bft)
23.06.2014 14:00 19,5 C 21,1 C 63 % 1021,8 hPa 0,0 l/m 0,80 h 0,00 h 3,2 UV-I 656 W/m 12,5 km/h (3 Bft)
23.06.2014 15:00 20,4 C 21,5 C 60 % 1021,5 hPa 0,0 l/m 0,63 h 0,00 h 2,7 UV-I 575 W/m 15,0 km/h (3 Bft)
23.06.2014 16:00 20,7 C 20,8 C 59 % 1021,1 hPa 0,0 l/m 0,87 h 0,00 h 2,3 UV-I 768 W/m 17,3 km/h (3 Bft)
23.06.2014 17:00 20,6 C 20,3 C 60 % 1020,7 hPa 0,0 l/m 0,40 h 0,00 h 0,6 UV-I 383 W/m 14,8 km/h (3 Bft)
23.06.2014 18:00 20,4 C 19,3 C 61 % 1020,0 hPa 0,0 l/m 0,57 h 0,00 h 0,0 UV-I 329 W/m 14,6 km/h (3 Bft)
23.06.2014 19:00 20,1 C 18,8 C 61 % 1019,5 hPa 0,0 l/m 0,63 h 0,00 h 0,0 UV-I 203 W/m 13,9 km/h (3 Bft)
23.06.2014 20:00 19,8 C 18,2 C 63 % 1019,4 hPa 0,0 l/m 0,77 h 0,00 h 0,0 UV-I 102 W/m 10,6 km/h (2 Bft)
23.06.2014 21:00 18,6 C 16,8 C 67 % 1019,4 hPa 0,0 l/m 0,23 h 0,00 h 0,0 UV-I 20 W/m 3,2 km/h (1 Bft)
23.06.2014 22:00 16,3 C 13,9 C 76 % 1019,6 hPa 0,0 l/m 0,00 h 0,00 h 0,0 UV-I 0 W/m 0,3 km/h (0 Bft)
23.06.2014 23:00 15,0 C 12,6 C 82 % 1019,7 hPa 0,0 l/m 0,00 h 0,00 h 0,0 UV-I 0 W/m 0,0 km/h (0 Bft)
24.06.2014 00:00 13,8 C 11,7 C 87 % 1019,6 hPa 0,0 l/m 0,00 h 0,00 h 0,0 UV-I 0 W/m 0,0 km/h (0 Bft)
24.06.2014 01:00 13,1 C 11,2 C 89 % 1019,5 hPa 0,0 l/m 0,00 h 0,00 h 0,0 UV-I 0 W/m 0,0 km/h (0 Bft)
24.06.2014 02:00 12,3 C 10,6 C 91 % 1019,4 hPa 0,0 l/m 0,00 h 0,00 h 0,0 UV-I 0 W/m 0,0 km/h (0 Bft)
24.06.2014 03:00 11,6 C 10,1 C 94 % 1019,2 hPa 0,0 l/m 0,00 h 0,00 h 0,0 UV-I 0 W/m 0,0 km/h (0 Bft)
24.06.2014 04:00 11,2 C 9,9 C 95 % 1018,8 hPa 0,0 l/m 0,00 h 0,00 h 0,0 UV-I 0 W/m 0,0 km/h (0 Bft)
24.06.2014 05:00 11,4 C 10,2 C 95 % 1018,5 hPa 0,0 l/m 0,07 h 0,00 h 0,0 UV-I 14 W/m 0,0 km/h (0 Bft)
24.06.2014 06:00 11,7 C 10,6 C 95 % 1018,4 hPa 0,0 l/m 0,40 h 0,00 h 0,0 UV-I 85 W/m 0,0 km/h (0 Bft)
24.06.2014 07:00 12,8 C 11,8 C 94 % 1018,4 hPa 0,0 l/m 0,40 h 0,00 h 0,0 UV-I 153 W/m 0,0 km/h (0 Bft)
24.06.2014 08:00 15,0 C 14,5 C 89 % 1018,3 hPa 0,0 l/m 0,10 h 0,00 h 0,0 UV-I 162 W/m 0,2 km/h (0 Bft)
24.06.2014 09:00 16,7 C 16,6 C 84 % 1018,3 hPa 0,0 l/m 0,73 h 0,00 h 0,8 UV-I 334 W/m 2,4 km/h (1 Bft)
24.06.2014 10:00 18,9 C 19,3 C 75 % 1018,2 hPa 0,0 l/m 1,00 h 0,00 h 1,5 UV-I 502 W/m 4,9 km/h (1 Bft)
24.06.2014 11:00 19,8 C 20,7 C 70 % 1018,1 hPa 0,0 l/m 0,67 h 0,00 h 1,9 UV-I 502 W/m 7,6 km/h (2 Bft)
24.06.2014 12:00 20,1 C 20,8 C 69 % 1017,8 hPa 0,0 l/m 0,50 h 0,07 h 1,9 UV-I 393 W/m 6,3 km/h (2 Bft)
24.06.2014 13:00 19,0 C 17,7 C 75 % 1017,5 hPa 0,0 l/m 0,53 h 0,37 h 2,6 UV-I 517 W/m 7,6 km/h (2 Bft)
24.06.2014 14:00 21,1 C 22,8 C 66 % 1016,9 hPa 0,2 l/m 1,00 h 0,00 h 3,1 UV-I 733 W/m 7,3 km/h (2 Bft)
24.06.2014 15:00 21,6 C 22,3 C 65 % 1016,3 hPa 0,0 l/m 0,90 h 0,00 h 1,8 UV-I 488 W/m 7,6 km/h (2 Bft)
24.06.2014 16:00 20,4 C 18,1 C 73 % 1015,9 hPa 0,2 l/m 0,43 h 0,33 h 1,1 UV-I 378 W/m 3,9 km/h (1 Bft)
24.06.2014 17:00 22,2 C 19,6 C 65 % 1015,1 hPa 0,0 l/m 1,00 h 0,00 h 0,9 UV-I 646 W/m 11,2 km/h (2 Bft)
24.06.2014 18:00 20,8 C 19,5 C 65 % 1014,7 hPa 0,0 l/m 0,50 h 0,33 h 0,0 UV-I 211 W/m 19,8 km/h (4 Bft)
24.06.2014 19:00 19,2 C 18,4 C 71 % 1014,7 hPa 0,0 l/m 0,63 h 0,00 h 0,0 UV-I 194 W/m 23,1 km/h (4 Bft)
24.06.2014 20:00 17,8 C 16,7 C 77 % 1015,0 hPa 0,0 l/m 0,57 h 0,00 h 0,0 UV-I 93 W/m 22,7 km/h (4 Bft)
24.06.2014 21:00 16,1 C 15,0 C 81 % 1015,5 hPa 0,0 l/m 0,00 h 0,00 h 0,0 UV-I 14 W/m 24,9 km/h (4 Bft)
24.06.2014 22:00 14,7 C 13,7 C 85 % 1015,6 hPa 0,0 l/m 0,00 h 0,00 h 0,0 UV-I 0 W/m 12,0 km/h (2 Bft)
24.06.2014 23:00 14,2 C 13,2 C 84 % 1015,8 hPa 0,0 l/m 0,00 h 0,03 h 0,0 UV-I 0 W/m 10,2 km/h (2 Bft)
25.06.2014 00:00 14,0 C 12,8 C 85 % 1015,7 hPa 0,0 l/m 0,00 h 0,23 h 0,0 UV-I 0 W/m 8,5 km/h (2 Bft)
25.06.2014 01:00 13,8 C 12,8 C 86 % 1015,6 hPa 0,0 l/m 0,00 h 0,00 h 0,0 UV-I 0 W/m 11,2 km/h (2 Bft)
25.06.2014 02:00 13,5 C 12,6 C 85 % 1015,6 hPa 0,0 l/m 0,00 h 0,00 h 0,0 UV-I 0 W/m 11,9 km/h (2 Bft)
25.06.2014 03:00 12,8 C 12,0 C 87 % 1015,4 hPa 0,0 l/m 0,00 h 0,00 h 0,0 UV-I 0 W/m 8,4 km/h (2 Bft)
25.06.2014 04:00 11,4 C 10,5 C 90 % 1015,0 hPa 0,0 l/m 0,00 h 0,00 h 0,0 UV-I 0 W/m 7,2 km/h (2 Bft)
25.06.2014 05:00 10,2 C 9,3 C 93 % 1015,2 hPa 0,0 l/m 0,43 h 0,00 h 0,0 UV-I 30 W/m 5,0 km/h (1 Bft)
25.06.2014 06:00 10,3 C 9,6 C 95 % 1015,4 hPa 0,0 l/m 0,97 h 0,00 h 0,0 UV-I 165 W/m 5,6 km/h (1 Bft)
25.06.2014 07:00 11,3 C 10,6 C 93 % 1015,4 hPa 0,0 l/m 1,00 h 0,00 h 0,0 UV-I 368 W/m 9,3 km/h (2 Bft)
25.06.2014 08:00 12,8 C 12,1 C 86 % 1015,6 hPa 0,0 l/m 0,87 h 0,00 h 0,0 UV-I 388 W/m 15,6 km/h (3 Bft)
25.06.2014 09:00 13,7 C 13,8 C 81 % 1015,8 hPa 0,0 l/m 0,90 h 0,00 h 0,8 UV-I 370 W/m 14,5 km/h (3 Bft)
25.06.2014 10:00 14,4 C 14,5 C 76 % 1015,9 hPa 0,0 l/m 0,37 h 0,00 h 0,9 UV-I 308 W/m 12,4 km/h (3 Bft)
25.06.2014 11:00 15,4 C 15,9 C 69 % 1016,0 hPa 0,0 l/m 0,50 h 0,00 h 1,5 UV-I 375 W/m 16,2 km/h (3 Bft)
25.06.2014 12:00 16,0 C 16,4 C 63 % 1016,1 hPa 0,0 l/m 0,27 h 0,00 h 1,7 UV-I 355 W/m 17,3 km/h (3 Bft)
25.06.2014 13:00 16,7 C 17,7 C 62 % 1016,1 hPa 0,0 l/m 0,67 h 0,00 h 2,9 UV-I 516 W/m 15,8 km/h (3 Bft)
25.06.2014 14:00 18,1 C 21,7 C 59 % 1015,8 hPa 0,0 l/m 0,70 h 0,00 h 3,8 UV-I 772 W/m 18,6 km/h (3 Bft)
25.06.2014 15:00 18,9 C 20,9 C 57 % 1015,4 hPa 0,0 l/m 0,93 h 0,00 h 3,5 UV-I 862 W/m 17,9 km/h (3 Bft)
25.06.2014 16:00 19,1 C 19,3 C 54 % 1015,3 hPa 0,0 l/m 0,80 h 0,00 h 2,2 UV-I 670 W/m 19,0 km/h (3 Bft)
25.06.2014 17:00 19,4 C 18,9 C 53 % 1015,3 hPa 0,0 l/m 0,87 h 0,00 h 0,7 UV-I 608 W/m 18,3 km/h (3 Bft)
25.06.2014 18:00 19,0 C 17,8 C 53 % 1015,1 hPa 0,0 l/m 0,63 h 0,00 h 0,0 UV-I 336 W/m 14,9 km/h (3 Bft)
25.06.2014 19:00 19,1 C 17,8 C 53 % 1015,1 hPa 0,0 l/m 0,97 h 0,00 h 0,0 UV-I 300 W/m 13,5 km/h (3 Bft)
25.06.2014 20:00 18,6 C 17,3 C 55 % 1015,1 hPa 0,0 l/m 1,00 h 0,00 h 0,0 UV-I 118 W/m 8,8 km/h (2 Bft)
25.06.2014 21:00 17,3 C 14,1 C 61 % 1015,4 hPa 0,0 l/m 0,40 h 0,00 h 0,0 UV-I 22 W/m 0,4 km/h (0 Bft)
25.06.2014 22:00 15,5 C 12,8 C 70 % 1015,8 hPa 0,0 l/m 0,00 h 0,00 h 0,0 UV-I 0 W/m 0,0 km/h (0 Bft)
25.06.2014 23:00 13,8 C 11,7 C 77 % 1015,8 hPa 0,0 l/m 0,00 h 0,00 h 0,0 UV-I 0 W/m 0,0 km/h (0 Bft)
26.06.2014 00:00 13,0 C 11,3 C 81 % 1015,8 hPa 0,0 l/m 0,00 h 0,00 h 0,0 UV-I 0 W/m 0,4 km/h (0 Bft)
26.06.2014 01:00 12,7 C 11,3 C 83 % 1015,9 hPa 0,0 l/m 0,00 h 0,00 h 0,0 UV-I 0 W/m 1,1 km/h (1 Bft)
26.06.2014 02:00 12,5 C 10,7 C 84 % 1015,6 hPa 0,0 l/m 0,00 h 0,00 h 0,0 UV-I 0 W/m 0,1 km/h (0 Bft)
26.06.2014 03:00 11,6 C 10,1 C 87 % 1015,4 hPa 0,0 l/m 0,00 h 0,00 h 0,0 UV-I 0 W/m 0,0 km/h (0 Bft)
26.06.2014 04:00 11,3 C 10,0 C 89 % 1015,2 hPa 0,0 l/m 0,00 h 0,00 h 0,0 UV-I 0 W/m 0,0 km/h (0 Bft)
26.06.2014 05:00 11,3 C 10,0 C 90 % 1015,2 hPa 0,0 l/m 0,00 h 0,00 h 0,0 UV-I 13 W/m 0,0 km/h (0 Bft)
26.06.2014 06:00 11,7 C 10,8 C 90 % 1015,2 hPa 0,0 l/m 0,70 h 0,00 h 0,0 UV-I 92 W/m 1,9 km/h (1 Bft)
26.06.2014 07:00 13,1 C 12,6 C 85 % 1015,4 hPa 0,0 l/m 1,00 h 0,00 h 0,0 UV-I 178 W/m 9,0 km/h (2 Bft)
26.06.2014 08:00 14,7 C 13,6 C 81 % 1015,5 hPa 0,0 l/m 0,77 h 0,00 h 0,6 UV-I 323 W/m 10,4 km/h (2 Bft)
26.06.2014 09:00 17,3 C 15,7 C 73 % 1015,5 hPa 0,0 l/m 1,00 h 0,00 h 1,3 UV-I 536 W/m 10,5 km/h (2 Bft)
26.06.2014 10:00 19,3 C 20,9 C 65 % 1015,4 hPa 0,0 l/m 1,00 h 0,00 h 2,5 UV-I 675 W/m 7,0 km/h (2 Bft)
26.06.2014 11:00 20,3 C 24,4 C 58 % 1015,4 hPa 0,0 l/m 0,90 h 0,00 h 3,4 UV-I 773 W/m 8,6 km/h (2 Bft)
26.06.2014 12:00 21,2 C 26,5 C 54 % 1015,1 hPa 0,0 l/m 0,87 h 0,00 h 4,1 UV-I 792 W/m 10,0 km/h (2 Bft)
26.06.2014 13:00 22,2 C 24,5 C 50 % 1014,7 hPa 0,0 l/m 0,93 h 0,00 h 4,6 UV-I 846 W/m 13,6 km/h (3 Bft)
26.06.2014 14:00 22,3 C 26,1 C 48 % 1014,5 hPa 0,0 l/m 0,80 h 0,00 h 3,9 UV-I 738 W/m 12,4 km/h (3 Bft)
26.06.2014 15:00 22,5 C 24,7 C 47 % 1014,3 hPa 0,0 l/m 0,60 h 0,00 h 2,7 UV-I 561 W/m 10,5 km/h (2 Bft)
26.06.2014 16:00 22,7 C 22,8 C 48 % 1014,1 hPa 0,0 l/m 1,00 h 0,00 h 2,1 UV-I 582 W/m 6,2 km/h (2 Bft)
26.06.2014 17:00 22,7 C 22,3 C 47 % 1013,7 hPa 0,0 l/m 1,00 h 0,00 h 1,0 UV-I 444 W/m 7,4 km/h (2 Bft)
26.06.2014 18:00 22,3 C 21,3 C 48 % 1013,5 hPa 0,0 l/m 0,97 h 0,00 h 0,5 UV-I 351 W/m 7,3 km/h (2 Bft)
26.06.2014 19:00 21,8 C 20,9 C 49 % 1013,5 hPa 0,0 l/m 0,70 h 0,00 h 0,0 UV-I 214 W/m 5,0 km/h (1 Bft)
26.06.2014 20:00 21,0 C 19,2 C 52 % 1013,6 hPa 0,0 l/m 0,17 h 0,00 h 0,0 UV-I 71 W/m 0,6 km/h (0 Bft)
26.06.2014 21:00 18,8 C 16,0 C 62 % 1013,7 hPa 0,0 l/m 0,00 h 0,00 h 0,0 UV-I 16 W/m 0,1 km/h (0 Bft)
26.06.2014 22:00 16,6 C 14,4 C 74 % 1014,1 hPa 0,0 l/m 0,00 h 0,00 h 0,0 UV-I 0 W/m 0,0 km/h (0 Bft)
26.06.2014 23:00 15,2 C 13,0 C 80 % 1014,2 hPa 0,0 l/m 0,00 h 0,00 h 0,0 UV-I 0 W/m 0,0 km/h (0 Bft)
27.06.2014 00:00 14,0 C 12,0 C 83 % 1014,1 hPa 0,0 l/m 0,00 h 0,00 h 0,0 UV-I 0 W/m 0,0 km/h (0 Bft)
27.06.2014 01:00 13,7 C 12,0 C 84 % 1014,0 hPa 0,0 l/m 0,00 h 0,00 h 0,0 UV-I 0 W/m 0,0 km/h (0 Bft)
27.06.2014 02:00 14,1 C 12,3 C 85 % 1013,7 hPa 0,0 l/m 0,00 h 0,00 h 0,0 UV-I 0 W/m 0,2 km/h (0 Bft)
27.06.2014 03:00 14,2 C 12,8 C 81 % 1013,5 hPa 0,0 l/m 0,00 h 0,00 h 0,0 UV-I 0 W/m 1,1 km/h (1 Bft)
27.06.2014 04:00 14,1 C 12,8 C 80 % 1013,5 hPa 0,0 l/m 0,00 h 0,00 h 0,0 UV-I 0 W/m 4,7 km/h (1 Bft)
27.06.2014 05:00 13,9 C 12,8 C 80 % 1013,4 hPa 0,0 l/m 0,00 h 0,00 h 0,0 UV-I 10 W/m 5,7 km/h (1 Bft)
27.06.2014 06:00 13,8 C 12,8 C 81 % 1013,5 hPa 0,0 l/m 0,43 h 0,00 h 0,0 UV-I 70 W/m 6,7 km/h (2 Bft)
27.06.2014 07:00 14,7 C 13,9 C 79 % 1013,6 hPa 0,0 l/m 0,10 h 0,00 h 0,0 UV-I 110 W/m 10,3 km/h (2 Bft)
27.06.2014 08:00 16,1 C 15,3 C 76 % 1013,7 hPa 0,0 l/m 0,63 h 0,00 h 0,7 UV-I 290 W/m 11,9 km/h (2 Bft)
27.06.2014 09:00 18,7 C 18,1 C 67 % 1014,0 hPa 0,0 l/m 0,33 h 0,00 h 0,7 UV-I 333 W/m 8,5 km/h (2 Bft)
27.06.2014 10:00 19,3 C 19,3 C 66 % 1014,1 hPa 0,0 l/m 0,27 h 0,07 h 1,2 UV-I 320 W/m 8,9 km/h (2 Bft)
27.06.2014 11:00 21,4 C 23,4 C 60 % 1014,1 hPa 0,0 l/m 0,93 h 0,00 h 2,5 UV-I 532 W/m 10,7 km/h (2 Bft)
27.06.2014 12:00 22,1 C 23,0 C 58 % 1014,0 hPa 0,0 l/m 0,50 h 0,00 h 2,3 UV-I 415 W/m 9,5 km/h (2 Bft)
27.06.2014 13:00 23,4 C 24,4 C 55 % 1013,6 hPa 0,0 l/m 0,73 h 0,00 h 3,0 UV-I 589 W/m 13,8 km/h (3 Bft)
27.06.2014 14:00 23,5 C 23,9 C 52 % 1013,3 hPa 0,0 l/m 0,63 h 0,00 h 2,4 UV-I 470 W/m 21,7 km/h (4 Bft)
27.06.2014 15:00 23,8 C 24,2 C 53 % 1012,9 hPa 0,0 l/m 0,63 h 0,00 h 2,0 UV-I 421 W/m 17,6 km/h (3 Bft)
27.06.2014 16:00 20,6 C 18,0 C 71 % 1013,0 hPa 0,2 l/m 0,30 h 0,50 h 1,1 UV-I 213 W/m 13,0 km/h (3 Bft)
27.06.2014 17:00 21,6 C 20,2 C 68 % 1012,8 hPa 0,0 l/m 0,77 h 0,00 h 0,8 UV-I 313 W/m 10,1 km/h (2 Bft)
27.06.2014 18:00 21,5 C 20,4 C 67 % 1012,4 hPa 0,0 l/m 0,00 h 0,00 h 0,0 UV-I 106 W/m 6,7 km/h (2 Bft)
27.06.2014 19:00 19,9 C 18,7 C 75 % 1012,5 hPa 0,0 l/m 0,00 h 0,00 h 0,0 UV-I 31 W/m 16,3 km/h (3 Bft)
27.06.2014 20:00 16,1 C 14,3 C 90 % 1014,0 hPa 6,0 l/m 0,00 h 0,97 h 0,0 UV-I 5 W/m 11,5 km/h (2 Bft)
27.06.2014 21:00 14,8 C 13,7 C 97 % 1013,8 hPa 2,6 l/m 0,00 h 1,00 h 0,0 UV-I 5 W/m 3,1 km/h (1 Bft)
27.06.2014 22:00 14,7 C 13,5 C 97 % 1014,3 hPa 0,2 l/m 0,00 h 0,80 h 0,0 UV-I 0 W/m 4,2 km/h (1 Bft)
27.06.2014 23:00 14,6 C 13,4 C 98 % 1014,2 hPa 0,4 l/m 0,00 h 0,87 h 0,0 UV-I 0 W/m 12,7 km/h (3 Bft)
28.06.2014 00:00 14,2 C 13,2 C 98 % 1013,2 hPa 0,0 l/m 0,00 h 0,00 h 0,0 UV-I 0 W/m 1,4 km/h (1 Bft)
28.06.2014 01:00 13,9 C 12,8 C 98 % 1013,1 hPa 0,2 l/m 0,00 h 0,00 h 0,0 UV-I 0 W/m 7,9 km/h (2 Bft)
28.06.2014 02:00 13,7 C 12,6 C 99 % 1012,8 hPa 0,0 l/m 0,00 h 0,00 h 0,0 UV-I 0 W/m 9,9 km/h (2 Bft)
28.06.2014 03:00 13,2 C 11,9 C 99 % 1012,5 hPa 0,0 l/m 0,00 h 0,00 h 0,0 UV-I 0 W/m 2,0 km/h (1 Bft)
28.06.2014 04:00 13,0 C 11,7 C 99 % 1012,5 hPa 0,0 l/m 0,00 h 0,00 h 0,0 UV-I 0 W/m 4,1 km/h (1 Bft)
28.06.2014 05:00 12,9 C 11,8 C 99 % 1012,3 hPa 0,0 l/m 0,23 h 0,00 h 0,0 UV-I 16 W/m 6,5 km/h (2 Bft)
28.06.2014 06:00 13,1 C 12,2 C 99 % 1012,3 hPa 0,0 l/m 0,00 h 0,00 h 0,0 UV-I 49 W/m 7,7 km/h (2 Bft)
28.06.2014 07:00 13,9 C 13,0 C 98 % 1012,3 hPa 0,0 l/m 0,43 h 0,00 h 0,0 UV-I 137 W/m 9,0 km/h (2 Bft)
28.06.2014 08:00 14,9 C 14,2 C 98 % 1012,2 hPa 0,0 l/m 0,10 h 0,00 h 0,0 UV-I 178 W/m 4,6 km/h (1 Bft)
28.06.2014 09:00 16,2 C 15,2 C 92 % 1012,2 hPa 0,0 l/m 0,63 h 0,00 h 0,8 UV-I 297 W/m 7,4 km/h (2 Bft)
28.06.2014 10:00 17,6 C 17,2 C 84 % 1011,8 hPa 0,0 l/m 0,73 h 0,00 h 1,8 UV-I 417 W/m 7,8 km/h (2 Bft)
28.06.2014 11:00 18,2 C 18,0 C 81 % 1011,4 hPa 0,0 l/m 0,10 h 0,00 h 1,3 UV-I 293 W/m 8,7 km/h (2 Bft)
28.06.2014 12:00 18,9 C 19,1 C 79 % 1011,0 hPa 0,0 l/m 0,07 h 0,00 h 1,7 UV-I 316 W/m 7,3 km/h (2 Bft)
28.06.2014 13:00 17,8 C 16,1 C 82 % 1010,9 hPa 0,8 l/m 0,00 h 0,67 h 0,5 UV-I 118 W/m 5,1 km/h (1 Bft)
28.06.2014 14:00 16,3 C 14,9 C 91 % 1010,5 hPa 0,8 l/m 0,00 h 1,00 h 0,6 UV-I 147 W/m 0,1 km/h (0 Bft)
28.06.2014 15:00 16,2 C 15,0 C 93 % 1010,1 hPa 0,6 l/m 0,00 h 1,00 h 0,6 UV-I 156 W/m 0,2 km/h (0 Bft)
28.06.2014 16:00 16,0 C 14,8 C 94 % 1009,7 hPa 0,4 l/m 0,00 h 1,00 h 0,5 UV-I 145 W/m 0,1 km/h (0 Bft)
28.06.2014 17:00 16,2 C 15,1 C 96 % 1009,2 hPa 0,4 l/m 0,00 h 1,00 h 0,0 UV-I 117 W/m 1,0 km/h (0 Bft)
28.06.2014 18:00 16,3 C 15,1 C 95 % 1008,9 hPa 0,2 l/m 0,00 h 0,97 h 0,0 UV-I 87 W/m 1,4 km/h (1 Bft)
28.06.2014 19:00 16,1 C 14,9 C 95 % 1008,4 hPa 0,6 l/m 0,00 h 1,00 h 0,0 UV-I 49 W/m 0,4 km/h (0 Bft)
28.06.2014 20:00 15,4 C 14,2 C 97 % 1008,1 hPa 0,4 l/m 0,00 h 1,00 h 0,0 UV-I 21 W/m 4,3 km/h (1 Bft)
28.06.2014 21:00 15,0 C 13,9 C 97 % 1007,6 hPa 0,0 l/m 0,00 h 0,10 h 0,0 UV-I 10 W/m 0,0 km/h (0 Bft)
28.06.2014 22:00 14,8 C 13,8 C 98 % 1007,8 hPa 0,0 l/m 0,00 h 0,00 h 0,0 UV-I 0 W/m 0,0 km/h (0 Bft)
28.06.2014 23:00 14,5 C 13,3 C 99 % 1007,4 hPa 0,0 l/m 0,00 h 0,00 h 0,0 UV-I 0 W/m 0,1 km/h (0 Bft)
29.06.2014 00:00 14,2 C 13,2 C 99 % 1007,3 hPa 0,0 l/m 0,00 h 0,13 h 0,0 UV-I 0 W/m 0,1 km/h (0 Bft)
29.06.2014 01:00 14,2 C 12,8 C 99 % 1007,0 hPa 0,0 l/m 0,00 h 0,47 h 0,0 UV-I 0 W/m 0,0 km/h (0 Bft)
29.06.2014 02:00 14,1 C 12,8 C 99 % 1006,7 hPa 0,0 l/m 0,00 h 0,67 h 0,0 UV-I 0 W/m 0,0 km/h (0 Bft)
29.06.2014 03:00 14,1 C 13,0 C 99 % 1006,6 hPa 0,4 l/m 0,00 h 0,90 h 0,0 UV-I 0 W/m 0,8 km/h (0 Bft)
29.06.2014 04:00 14,1 C 13,1 C 99 % 1006,5 hPa 0,8 l/m 0,00 h 0,95 h 0,0 UV-I 0 W/m 6,7 km/h (2 Bft)
29.06.2014 05:00 13,6 C 12,8 C 100 % 1006,4 hPa 1,6 l/m 0,00 h 1,00 h 0,0 UV-I 5 W/m 10,9 km/h (2 Bft)
29.06.2014 06:00 13,2 C 12,2 C 99 % 1006,6 hPa 1,0 l/m 0,00 h 0,97 h 0,0 UV-I 15 W/m 4,8 km/h (1 Bft)
29.06.2014 07:00 13,6 C 12,9 C 100 % 1006,8 hPa 0,0 l/m 0,00 h 0,53 h 0,0 UV-I 67 W/m 2,1 km/h (1 Bft)
29.06.2014 08:00 14,1 C 13,4 C 100 % 1007,2 hPa 0,0 l/m 0,00 h 0,83 h 0,0 UV-I 110 W/m 7,9 km/h (2 Bft)
29.06.2014 09:00 14,6 C 14,0 C 99 % 1007,6 hPa 0,0 l/m 0,00 h 0,87 h 0,5 UV-I 144 W/m 12,2 km/h (2 Bft)
29.06.2014 10:00 14,9 C 14,1 C 98 % 1008,2 hPa 0,2 l/m 0,00 h 0,97 h 0,7 UV-I 153 W/m 10,1 km/h (2 Bft)
29.06.2014 11:00 15,5 C 14,9 C 95 % 1008,6 hPa 0,0 l/m 0,20 h 0,33 h 1,4 UV-I 282 W/m 12,6 km/h (3 Bft)
29.06.2014 12:00 16,4 C 15,8 C 88 % 1008,6 hPa 0,2 l/m 0,37 h 0,00 h 1,7 UV-I 363 W/m 16,3 km/h (3 Bft)
29.06.2014 13:00 18,5 C 18,3 C 79 % 1008,6 hPa 0,0 l/m 0,63 h 0,00 h 3,1 UV-I 579 W/m 20,1 km/h (4 Bft)
29.06.2014 14:00 18,3 C 18,8 C 76 % 1009,1 hPa 0,0 l/m 0,70 h 0,00 h 2,8 UV-I 518 W/m 23,0 km/h (4 Bft)
29.06.2014 15:00 17,5 C 18,1 C 80 % 1009,3 hPa 0,0 l/m 0,47 h 0,00 h 2,1 UV-I 480 W/m 16,7 km/h (3 Bft)
29.06.2014 16:00 17,4 C 17,8 C 79 % 1009,6 hPa 0,0 l/m 0,53 h 0,00 h 1,5 UV-I 379 W/m 14,2 km/h (3 Bft)
29.06.2014 17:00 17,9 C 17,9 C 77 % 1009,6 hPa 0,0 l/m 0,60 h 0,00 h 0,8 UV-I 360 W/m 16,4 km/h (3 Bft)
29.06.2014 18:00 17,2 C 16,8 C 79 % 1009,7 hPa 0,0 l/m 0,03 h 0,03 h 0,0 UV-I 174 W/m 15,7 km/h (3 Bft)
29.06.2014 19:00 16,3 C 15,5 C 84 % 1010,0 hPa 0,0 l/m 0,03 h 0,07 h 0,0 UV-I 67 W/m 9,6 km/h (2 Bft)
29.06.2014 20:00 15,7 C 15,0 C 85 % 1010,0 hPa 0,0 l/m 0,03 h 0,00 h 0,0 UV-I 60 W/m 4,9 km/h (1 Bft)
29.06.2014 21:00 15,3 C 14,2 C 88 % 1010,4 hPa 0,0 l/m 0,00 h 0,00 h 0,0 UV-I 11 W/m 10,1 km/h (2 Bft)
29.06.2014 22:00 14,5 C 13,4 C 91 % 1010,9 hPa 0,0 l/m 0,00 h 0,00 h 0,0 UV-I 0 W/m 10,0 km/h (2 Bft)
29.06.2014 23:00 13,4 C 12,3 C 94 % 1011,5 hPa 0,0 l/m 0,00 h 0,00 h 0,0 UV-I 0 W/m 9,2 km/h (2 Bft)
Min-Datum _ 23.06.14 23.06.14 26.06.14 29.06.14 - - - - - 23.06.14
_ Min-Zeit 05:20 04:42 15:12 04:50 - - - - - 00:00
Minimum _ 8,6 C 7,2 C 43 % 1006,3 hPa - - - - - 0,0 km/h (0 Bft)
Max-Datum _ 27.06.14 26.06.14 28.06.14 23.06.14 27.06.14 23.06.14 24.06.14 25.06.14 23.06.14 27.06.14
_ Max-Zeit 13:28 14:22 01:08 08:20 20:16 05:34 12:56 13:40 13:54 16:18
Maximum _ 24,1 C 31,7 C 100 % 1023,6 hPa 6,0 l/m 0,03 h 0,03 h 5,9 UV-I 1296 W/m 39,7 km/h
W (6 Bft)
Durchschnitt _ 16,2 C 15,5 C 80 % 1014,6 hPa #18,4 l/m #59:02 h #22:01 h 1,8 UV-I 310 W/m 7,5 km/h (2 Bft)
© 2014 W. Hausmann